sensor_id;sensor_type;location;lat;lon;timestamp;P1;durP1;ratioP1;P2;durP2;ratioP2
31126;SDS011;17775;57.948;12.514;2022-09-30T00:01:48;8.55;;;4.65;;
31126;SDS011;17775;57.948;12.514;2022-09-30T00:04:19;7.30;;;3.63;;
31126;SDS011;17775;57.948;12.514;2022-09-30T00:06:46;7.10;;;3.75;;
31126;SDS011;17775;57.948;12.514;2022-09-30T00:09:13;7.50;;;3.70;;
31126;SDS011;17775;57.948;12.514;2022-09-30T00:11:39;7.38;;;3.03;;
31126;SDS011;17775;57.948;12.514;2022-09-30T00:14:07;7.07;;;2.70;;
31126;SDS011;17775;57.948;12.514;2022-09-30T00:16:34;3.72;;;2.17;;
31126;SDS011;17775;57.948;12.514;2022-09-30T00:19:01;4.95;;;2.28;;
31126;SDS011;17775;57.948;12.514;2022-09-30T00:21:30;7.35;;;3.17;;
31126;SDS011;17775;57.948;12.514;2022-09-30T00:23:57;11.98;;;3.90;;
31126;SDS011;17775;57.948;12.514;2022-09-30T00:26:24;8.50;;;3.95;;
31126;SDS011;17775;57.948;12.514;2022-09-30T00:28:51;9.23;;;4.20;;
31126;SDS011;17775;57.948;12.514;2022-09-30T00:31:18;14.75;;;4.05;;
31126;SDS011;17775;57.948;12.514;2022-09-30T00:33:45;14.02;;;4.95;;
31126;SDS011;17775;57.948;12.514;2022-09-30T00:39:04;15.57;;;5.45;;
31126;SDS011;17775;57.948;12.514;2022-09-30T00:41:31;12.93;;;4.40;;
31126;SDS011;17775;57.948;12.514;2022-09-30T00:43:57;20.75;;;6.40;;
31126;SDS011;17775;57.948;12.514;2022-09-30T00:46:39;16.70;;;5.03;;
31126;SDS011;17775;57.948;12.514;2022-09-30T00:49:19;9.95;;;4.18;;
31126;SDS011;17775;57.948;12.514;2022-09-30T00:51:49;10.32;;;4.93;;
31126;SDS011;17775;57.948;12.514;2022-09-30T00:54:19;34.27;;;10.03;;
31126;SDS011;17775;57.948;12.514;2022-09-30T00:56:50;28.75;;;9.07;;
31126;SDS011;17775;57.948;12.514;2022-09-30T00:59:24;34.85;;;10.30;;
31126;SDS011;17775;57.948;12.514;2022-09-30T01:01:52;22.67;;;8.13;;
31126;SDS011;17775;57.948;12.514;2022-09-30T01:04:22;11.85;;;5.20;;
31126;SDS011;17775;57.948;12.514;2022-09-30T01:06:51;12.57;;;4.55;;
31126;SDS011;17775;57.948;12.514;2022-09-30T01:09:17;9.98;;;4.00;;
31126;SDS011;17775;57.948;12.514;2022-09-30T01:11:45;11.98;;;4.47;;
31126;SDS011;17775;57.948;12.514;2022-09-30T01:14:13;10.45;;;4.50;;
31126;SDS011;17775;57.948;12.514;2022-09-30T01:37:46;11.18;;;4.25;;
31126;SDS011;17775;57.948;12.514;2022-09-30T01:40:32;6.10;;;2.80;;
31126;SDS011;17775;57.948;12.514;2022-09-30T01:43:06;6.68;;;2.78;;
31126;SDS011;17775;57.948;12.514;2022-09-30T01:45:41;6.32;;;2.45;;
31126;SDS011;17775;57.948;12.514;2022-09-30T01:55:52;3.45;;;2.05;;
31126;SDS011;17775;57.948;12.514;2022-09-30T01:58:26;4.47;;;1.85;;
31126;SDS011;17775;57.948;12.514;2022-09-30T02:00:57;3.15;;;1.85;;
31126;SDS011;17775;57.948;12.514;2022-09-30T02:03:35;3.03;;;1.67;;
31126;SDS011;17775;57.948;12.514;2022-09-30T02:06:13;4.35;;;1.85;;
31126;SDS011;17775;57.948;12.514;2022-09-30T02:08:46;4.43;;;1.60;;
31126;SDS011;17775;57.948;12.514;2022-09-30T02:11:14;3.35;;;1.70;;
31126;SDS011;17775;57.948;12.514;2022-09-30T02:13:48;3.17;;;1.63;;
31126;SDS011;17775;57.948;12.514;2022-09-30T02:16:19;5.45;;;1.90;;
31126;SDS011;17775;57.948;12.514;2022-09-30T02:18:51;3.67;;;1.52;;
31126;SDS011;17775;57.948;12.514;2022-09-30T02:21:20;4.18;;;1.70;;
31126;SDS011;17775;57.948;12.514;2022-09-30T02:23:48;2.75;;;1.55;;
31126;SDS011;17775;57.948;12.514;2022-09-30T02:26:18;5.43;;;2.08;;
31126;SDS011;17775;57.948;12.514;2022-09-30T02:28:48;9.23;;;2.03;;
31126;SDS011;17775;57.948;12.514;2022-09-30T02:31:15;3.40;;;1.80;;
31126;SDS011;17775;57.948;12.514;2022-09-30T02:33:44;3.45;;;1.50;;
31126;SDS011;17775;57.948;12.514;2022-09-30T02:36:31;7.13;;;1.90;;
31126;SDS011;17775;57.948;12.514;2022-09-30T02:39:00;1.95;;;1.17;;
31126;SDS011;17775;57.948;12.514;2022-09-30T02:41:28;5.47;;;1.65;;
31126;SDS011;17775;57.948;12.514;2022-09-30T02:43:56;3.28;;;1.50;;
31126;SDS011;17775;57.948;12.514;2022-09-30T02:54:33;2.58;;;1.40;;
31126;SDS011;17775;57.948;12.514;2022-09-30T02:57:21;5.05;;;1.55;;
31126;SDS011;17775;57.948;12.514;2022-09-30T02:59:54;4.18;;;2.15;;
31126;SDS011;17775;57.948;12.514;2022-09-30T03:02:20;3.88;;;1.70;;
31126;SDS011;17775;57.948;12.514;2022-09-30T03:04:49;3.85;;;1.50;;
31126;SDS011;17775;57.948;12.514;2022-09-30T03:07:16;4.75;;;1.67;;
31126;SDS011;17775;57.948;12.514;2022-09-30T03:09:43;2.85;;;1.55;;
31126;SDS011;17775;57.948;12.514;2022-09-30T03:12:11;3.08;;;1.48;;
31126;SDS011;17775;57.948;12.514;2022-09-30T03:30:21;4.72;;;1.40;;
31126;SDS011;17775;57.948;12.514;2022-09-30T03:33:08;3.03;;;1.77;;
31126;SDS011;17775;57.948;12.514;2022-09-30T03:38:13;4.30;;;1.30;;
31126;SDS011;17775;57.948;12.514;2022-09-30T03:40:50;2.00;;;1.48;;
31126;SDS011;17775;57.948;12.514;2022-09-30T03:43:42;1.85;;;1.42;;
31126;SDS011;17775;57.948;12.514;2022-09-30T03:46:25;3.13;;;1.67;;
31126;SDS011;17775;57.948;12.514;2022-09-30T03:48:55;2.72;;;1.42;;
31126;SDS011;17775;57.948;12.514;2022-09-30T03:51:23;3.85;;;1.80;;
31126;SDS011;17775;57.948;12.514;2022-09-30T03:53:50;2.92;;;1.90;;
31126;SDS011;17775;57.948;12.514;2022-09-30T03:56:28;2.22;;;1.30;;
31126;SDS011;17775;57.948;12.514;2022-09-30T03:58:55;2.55;;;1.65;;
31126;SDS011;17775;57.948;12.514;2022-09-30T04:01:22;2.25;;;1.50;;
31126;SDS011;17775;57.948;12.514;2022-09-30T04:03:49;3.40;;;1.52;;
31126;SDS011;17775;57.948;12.514;2022-09-30T04:06:19;2.53;;;1.55;;
31126;SDS011;17775;57.948;12.514;2022-09-30T04:08:46;2.42;;;1.75;;
31126;SDS011;17775;57.948;12.514;2022-09-30T04:11:13;4.15;;;2.15;;
31126;SDS011;17775;57.948;12.514;2022-09-30T04:13:39;5.38;;;2.08;;
31126;SDS011;17775;57.948;12.514;2022-09-30T04:16:06;2.97;;;1.50;;
31126;SDS011;17775;57.948;12.514;2022-09-30T04:18:36;3.97;;;1.65;;
31126;SDS011;17775;57.948;12.514;2022-09-30T04:21:04;3.33;;;1.77;;
31126;SDS011;17775;57.948;12.514;2022-09-30T04:23:32;2.60;;;1.55;;
31126;SDS011;17775;57.948;12.514;2022-09-30T04:26:02;5.32;;;1.60;;
31126;SDS011;17775;57.948;12.514;2022-09-30T04:28:29;3.50;;;1.92;;
31126;SDS011;17775;57.948;12.514;2022-09-30T04:30:57;2.90;;;1.77;;
31126;SDS011;17775;57.948;12.514;2022-09-30T04:33:24;3.40;;;1.83;;
31126;SDS011;17775;57.948;12.514;2022-09-30T04:35:54;3.25;;;1.90;;
31126;SDS011;17775;57.948;12.514;2022-09-30T04:38:21;3.53;;;2.10;;
31126;SDS011;17775;57.948;12.514;2022-09-30T04:40:47;3.40;;;1.52;;
31126;SDS011;17775;57.948;12.514;2022-09-30T04:43:15;3.38;;;1.90;;
31126;SDS011;17775;57.948;12.514;2022-09-30T04:45:42;3.22;;;1.73;;
31126;SDS011;17775;57.948;12.514;2022-09-30T04:48:10;4.68;;;1.85;;
31126;SDS011;17775;57.948;12.514;2022-09-30T04:50:37;3.45;;;1.80;;
31126;SDS011;17775;57.948;12.514;2022-09-30T04:53:03;3.63;;;1.98;;
31126;SDS011;17775;57.948;12.514;2022-09-30T04:55:30;6.13;;;2.05;;
31126;SDS011;17775;57.948;12.514;2022-09-30T04:57:59;4.25;;;2.25;;
31126;SDS011;17775;57.948;12.514;2022-09-30T05:00:26;5.72;;;2.25;;
31126;SDS011;17775;57.948;12.514;2022-09-30T05:02:52;4.97;;;3.30;;
31126;SDS011;17775;57.948;12.514;2022-09-30T05:05:19;5.45;;;3.72;;
31126;SDS011;17775;57.948;12.514;2022-09-30T05:07:45;9.75;;;2.70;;
31126;SDS011;17775;57.948;12.514;2022-09-30T05:10:11;4.60;;;2.42;;
31126;SDS011;17775;57.948;12.514;2022-09-30T05:12:38;4.72;;;2.70;;
31126;SDS011;17775;57.948;12.514;2022-09-30T05:15:11;4.68;;;2.30;;
31126;SDS011;17775;57.948;12.514;2022-09-30T05:17:37;4.63;;;2.70;;
31126;SDS011;17775;57.948;12.514;2022-09-30T05:20:04;7.63;;;4.18;;
31126;SDS011;17775;57.948;12.514;2022-09-30T05:22:35;6.25;;;4.80;;
31126;SDS011;17775;57.948;12.514;2022-09-30T05:25:02;8.95;;;4.55;;
31126;SDS011;17775;57.948;12.514;2022-09-30T05:27:29;7.50;;;4.82;;
31126;SDS011;17775;57.948;12.514;2022-09-30T05:29:56;6.28;;;3.70;;
31126;SDS011;17775;57.948;12.514;2022-09-30T05:32:23;5.35;;;3.22;;
31126;SDS011;17775;57.948;12.514;2022-09-30T05:34:50;4.80;;;3.00;;
31126;SDS011;17775;57.948;12.514;2022-09-30T05:37:16;5.43;;;3.70;;
31126;SDS011;17775;57.948;12.514;2022-09-30T05:39:43;5.90;;;3.80;;
31126;SDS011;17775;57.948;12.514;2022-09-30T05:42:09;6.32;;;4.30;;
31126;SDS011;17775;57.948;12.514;2022-09-30T05:44:39;7.22;;;5.20;;
31126;SDS011;17775;57.948;12.514;2022-09-30T05:47:05;10.57;;;5.90;;
31126;SDS011;17775;57.948;12.514;2022-09-30T05:49:32;10.90;;;5.55;;
31126;SDS011;17775;57.948;12.514;2022-09-30T05:51:59;7.45;;;4.70;;
31126;SDS011;17775;57.948;12.514;2022-09-30T05:54:26;8.73;;;5.07;;
31126;SDS011;17775;57.948;12.514;2022-09-30T05:56:52;7.63;;;4.95;;
31126;SDS011;17775;57.948;12.514;2022-09-30T05:59:19;6.15;;;3.83;;
31126;SDS011;17775;57.948;12.514;2022-09-30T06:01:45;6.28;;;3.55;;
31126;SDS011;17775;57.948;12.514;2022-09-30T06:04:12;6.53;;;2.85;;
31126;SDS011;17775;57.948;12.514;2022-09-30T06:06:38;4.13;;;2.72;;
31126;SDS011;17775;57.948;12.514;2022-09-30T06:09:07;9.75;;;5.53;;
31126;SDS011;17775;57.948;12.514;2022-09-30T06:11:33;15.73;;;8.00;;
31126;SDS011;17775;57.948;12.514;2022-09-30T06:14:00;15.15;;;7.32;;
31126;SDS011;17775;57.948;12.514;2022-09-30T06:16:26;7.30;;;5.22;;
31126;SDS011;17775;57.948;12.514;2022-09-30T06:18:53;13.75;;;3.80;;
31126;SDS011;17775;57.948;12.514;2022-09-30T06:21:20;4.60;;;2.47;;
31126;SDS011;17775;57.948;12.514;2022-09-30T06:23:47;4.03;;;2.67;;
31126;SDS011;17775;57.948;12.514;2022-09-30T06:26:14;5.22;;;2.70;;
31126;SDS011;17775;57.948;12.514;2022-09-30T06:28:41;8.85;;;3.65;;
31126;SDS011;17775;57.948;12.514;2022-09-30T06:31:07;6.47;;;3.85;;
31126;SDS011;17775;57.948;12.514;2022-09-30T06:33:34;6.93;;;3.45;;
31126;SDS011;17775;57.948;12.514;2022-09-30T06:36:00;5.25;;;2.72;;
31126;SDS011;17775;57.948;12.514;2022-09-30T06:38:30;6.30;;;3.33;;
31126;SDS011;17775;57.948;12.514;2022-09-30T06:40:59;4.15;;;2.22;;
31126;SDS011;17775;57.948;12.514;2022-09-30T06:43:26;4.30;;;2.40;;
31126;SDS011;17775;57.948;12.514;2022-09-30T06:45:53;6.50;;;2.42;;
31126;SDS011;17775;57.948;12.514;2022-09-30T06:48:30;4.10;;;2.13;;
31126;SDS011;17775;57.948;12.514;2022-09-30T06:51:07;4.50;;;2.50;;
31126;SDS011;17775;57.948;12.514;2022-09-30T06:53:36;5.60;;;2.13;;
31126;SDS011;17775;57.948;12.514;2022-09-30T06:56:05;3.95;;;2.20;;
31126;SDS011;17775;57.948;12.514;2022-09-30T06:58:31;3.60;;;2.25;;
31126;SDS011;17775;57.948;12.514;2022-09-30T07:01:02;4.97;;;2.20;;
31126;SDS011;17775;57.948;12.514;2022-09-30T07:03:30;3.60;;;2.30;;
31126;SDS011;17775;57.948;12.514;2022-09-30T07:06:01;4.22;;;2.30;;
31126;SDS011;17775;57.948;12.514;2022-09-30T07:08:28;5.65;;;2.40;;
31126;SDS011;17775;57.948;12.514;2022-09-30T07:10:57;4.90;;;2.50;;
31126;SDS011;17775;57.948;12.514;2022-09-30T07:13:23;3.78;;;2.30;;
31126;SDS011;17775;57.948;12.514;2022-09-30T07:15:50;3.53;;;2.50;;
31126;SDS011;17775;57.948;12.514;2022-09-30T07:18:20;4.38;;;2.25;;
31126;SDS011;17775;57.948;12.514;2022-09-30T07:20:47;3.42;;;2.28;;
31126;SDS011;17775;57.948;12.514;2022-09-30T07:23:13;4.20;;;2.47;;
31126;SDS011;17775;57.948;12.514;2022-09-30T07:25:47;4.90;;;2.80;;
31126;SDS011;17775;57.948;12.514;2022-09-30T07:28:13;7.10;;;3.55;;
31126;SDS011;17775;57.948;12.514;2022-09-30T07:30:41;11.40;;;4.65;;
31126;SDS011;17775;57.948;12.514;2022-09-30T07:33:08;15.60;;;5.82;;
31126;SDS011;17775;57.948;12.514;2022-09-30T07:35:36;14.35;;;6.22;;
31126;SDS011;17775;57.948;12.514;2022-09-30T07:38:03;15.50;;;6.28;;
31126;SDS011;17775;57.948;12.514;2022-09-30T07:40:29;10.43;;;4.85;;
31126;SDS011;17775;57.948;12.514;2022-09-30T07:42:56;10.23;;;4.80;;
31126;SDS011;17775;57.948;12.514;2022-09-30T07:45:23;12.73;;;5.18;;
31126;SDS011;17775;57.948;12.514;2022-09-30T07:47:50;12.05;;;5.28;;
31126;SDS011;17775;57.948;12.514;2022-09-30T07:50:19;6.50;;;3.58;;
31126;SDS011;17775;57.948;12.514;2022-09-30T07:52:45;4.60;;;3.20;;
31126;SDS011;17775;57.948;12.514;2022-09-30T07:55:12;8.32;;;4.93;;
31126;SDS011;17775;57.948;12.514;2022-09-30T07:57:38;9.13;;;5.32;;
31126;SDS011;17775;57.948;12.514;2022-09-30T08:00:04;7.50;;;4.55;;
31126;SDS011;17775;57.948;12.514;2022-09-30T08:02:52;5.10;;;2.45;;
31126;SDS011;17775;57.948;12.514;2022-09-30T08:05:18;4.35;;;2.38;;
31126;SDS011;17775;57.948;12.514;2022-09-30T08:07:45;2.33;;;1.88;;
31126;SDS011;17775;57.948;12.514;2022-09-30T08:10:11;2.70;;;1.80;;
31126;SDS011;17775;57.948;12.514;2022-09-30T08:12:38;3.17;;;2.00;;
31126;SDS011;17775;57.948;12.514;2022-09-30T08:15:04;3.08;;;1.80;;
31126;SDS011;17775;57.948;12.514;2022-09-30T08:17:31;3.88;;;1.70;;
31126;SDS011;17775;57.948;12.514;2022-09-30T08:19:58;2.58;;;1.73;;
31126;SDS011;17775;57.948;12.514;2022-09-30T08:22:24;3.42;;;1.80;;
31126;SDS011;17775;57.948;12.514;2022-09-30T08:24:50;2.20;;;1.40;;
31126;SDS011;17775;57.948;12.514;2022-09-30T08:27:17;3.28;;;1.65;;
31126;SDS011;17775;57.948;12.514;2022-09-30T08:29:43;2.22;;;1.35;;
31126;SDS011;17775;57.948;12.514;2022-09-30T08:32:30;2.83;;;1.65;;
31126;SDS011;17775;57.948;12.514;2022-09-30T08:34:57;2.75;;;1.50;;
31126;SDS011;17775;57.948;12.514;2022-09-30T08:37:23;2.67;;;1.75;;
31126;SDS011;17775;57.948;12.514;2022-09-30T08:39:49;4.35;;;1.90;;
31126;SDS011;17775;57.948;12.514;2022-09-30T08:45:12;3.03;;;1.80;;
31126;SDS011;17775;57.948;12.514;2022-09-30T08:52:56;2.85;;;1.77;;
31126;SDS011;17775;57.948;12.514;2022-09-30T08:55:25;4.38;;;2.30;;
31126;SDS011;17775;57.948;12.514;2022-09-30T08:57:52;4.00;;;1.70;;
31126;SDS011;17775;57.948;12.514;2022-09-30T09:00:20;3.10;;;1.73;;
31126;SDS011;17775;57.948;12.514;2022-09-30T09:02:53;3.60;;;1.70;;
31126;SDS011;17775;57.948;12.514;2022-09-30T09:05:28;4.53;;;1.80;;
31126;SDS011;17775;57.948;12.514;2022-09-30T09:08:02;3.22;;;1.52;;
31126;SDS011;17775;57.948;12.514;2022-09-30T09:13:15;4.05;;;1.70;;
31126;SDS011;17775;57.948;12.514;2022-09-30T09:21:18;2.28;;;1.50;;
31126;SDS011;17775;57.948;12.514;2022-09-30T09:23:45;3.70;;;1.50;;
31126;SDS011;17775;57.948;12.514;2022-09-30T09:26:13;3.50;;;1.52;;
31126;SDS011;17775;57.948;12.514;2022-09-30T09:31:19;1.95;;;1.30;;
31126;SDS011;17775;57.948;12.514;2022-09-30T09:33:45;2.00;;;1.42;;
31126;SDS011;17775;57.948;12.514;2022-09-30T09:46:26;2.67;;;1.30;;
31126;SDS011;17775;57.948;12.514;2022-09-30T09:51:39;2.38;;;1.45;;
31126;SDS011;17775;57.948;12.514;2022-09-30T09:54:07;2.13;;;1.00;;
31126;SDS011;17775;57.948;12.514;2022-09-30T09:56:35;4.13;;;1.20;;
31126;SDS011;17775;57.948;12.514;2022-09-30T09:59:07;2.13;;;1.50;;
31126;SDS011;17775;57.948;12.514;2022-09-30T10:01:42;2.80;;;1.30;;
31126;SDS011;17775;57.948;12.514;2022-09-30T10:04:11;4.13;;;1.10;;
31126;SDS011;17775;57.948;12.514;2022-09-30T10:06:44;2.22;;;1.30;;
31126;SDS011;17775;57.948;12.514;2022-09-30T10:09:27;5.00;;;1.35;;
31126;SDS011;17775;57.948;12.514;2022-09-30T10:17:24;1.85;;;1.27;;
31126;SDS011;17775;57.948;12.514;2022-09-30T10:19:53;2.65;;;1.33;;
31126;SDS011;17775;57.948;12.514;2022-09-30T10:22:24;2.40;;;1.15;;
31126;SDS011;17775;57.948;12.514;2022-09-30T10:24:56;3.30;;;1.27;;
31126;SDS011;17775;57.948;12.514;2022-09-30T10:27:33;3.83;;;1.30;;
31126;SDS011;17775;57.948;12.514;2022-09-30T10:30:00;4.65;;;2.20;;
31126;SDS011;17775;57.948;12.514;2022-09-30T10:32:27;2.80;;;1.60;;
31126;SDS011;17775;57.948;12.514;2022-09-30T10:34:57;3.03;;;1.60;;
31126;SDS011;17775;57.948;12.514;2022-09-30T10:37:26;3.20;;;1.20;;
31126;SDS011;17775;57.948;12.514;2022-09-30T10:40:00;2.28;;;1.38;;
31126;SDS011;17775;57.948;12.514;2022-09-30T10:42:37;3.28;;;1.45;;
31126;SDS011;17775;57.948;12.514;2022-09-30T10:45:05;2.67;;;1.40;;
31126;SDS011;17775;57.948;12.514;2022-09-30T10:47:36;1.77;;;1.07;;
31126;SDS011;17775;57.948;12.514;2022-09-30T10:50:15;2.35;;;1.40;;
31126;SDS011;17775;57.948;12.514;2022-09-30T10:52:53;2.00;;;1.27;;
31126;SDS011;17775;57.948;12.514;2022-09-30T10:57:50;1.95;;;1.17;;
31126;SDS011;17775;57.948;12.514;2022-09-30T11:00:22;2.13;;;1.20;;
31126;SDS011;17775;57.948;12.514;2022-09-30T11:05:35;1.77;;;1.00;;
31126;SDS011;17775;57.948;12.514;2022-09-30T11:10:47;1.75;;;1.10;;
31126;SDS011;17775;57.948;12.514;2022-09-30T11:21:01;3.28;;;1.00;;
31126;SDS011;17775;57.948;12.514;2022-09-30T11:23:37;2.03;;;1.00;;
31126;SDS011;17775;57.948;12.514;2022-09-30T11:31:36;1.92;;;0.95;;
31126;SDS011;17775;57.948;12.514;2022-09-30T11:36:59;1.35;;;0.98;;
31126;SDS011;17775;57.948;12.514;2022-09-30T11:42:26;1.30;;;0.93;;
31126;SDS011;17775;57.948;12.514;2022-09-30T11:44:58;1.65;;;1.30;;
31126;SDS011;17775;57.948;12.514;2022-09-30T11:47:31;1.17;;;1.00;;
31126;SDS011;17775;57.948;12.514;2022-09-30T11:50:14;1.25;;;1.00;;
31126;SDS011;17775;57.948;12.514;2022-09-30T11:52:48;2.85;;;1.10;;
31126;SDS011;17775;57.948;12.514;2022-09-30T11:58:35;0.70;;;0.70;;
31126;SDS011;17775;57.948;12.514;2022-09-30T12:00:57;1.73;;;1.00;;
31126;SDS011;17775;57.948;12.514;2022-09-30T12:03:31;2.05;;;0.90;;
31126;SDS011;17775;57.948;12.514;2022-09-30T12:06:21;2.05;;;1.10;;
31126;SDS011;17775;57.948;12.514;2022-09-30T12:08:49;2.15;;;0.98;;
31126;SDS011;17775;57.948;12.514;2022-09-30T12:11:18;1.92;;;0.90;;
31126;SDS011;17775;57.948;12.514;2022-09-30T12:13:47;1.02;;;0.80;;
31126;SDS011;17775;57.948;12.514;2022-09-30T12:16:17;1.45;;;1.00;;
31126;SDS011;17775;57.948;12.514;2022-09-30T12:18:47;2.38;;;1.00;;
31126;SDS011;17775;57.948;12.514;2022-09-30T12:23:57;1.73;;;1.00;;
31126;SDS011;17775;57.948;12.514;2022-09-30T12:26:25;1.08;;;0.80;;
31126;SDS011;17775;57.948;12.514;2022-09-30T12:29:26;2.63;;;1.10;;
31126;SDS011;17775;57.948;12.514;2022-09-30T12:47:42;1.70;;;0.95;;
31126;SDS011;17775;57.948;12.514;2022-09-30T12:50:12;1.45;;;0.90;;
31126;SDS011;17775;57.948;12.514;2022-09-30T12:52:39;1.23;;;1.00;;
31126;SDS011;17775;57.948;12.514;2022-09-30T12:55:07;1.30;;;0.80;;
31126;SDS011;17775;57.948;12.514;2022-09-30T12:57:36;2.55;;;1.02;;
31126;SDS011;17775;57.948;12.514;2022-09-30T13:00:12;1.63;;;1.10;;
31126;SDS011;17775;57.948;12.514;2022-09-30T13:02:40;1.20;;;0.85;;
31126;SDS011;17775;57.948;12.514;2022-09-30T13:05:41;0.85;;;0.82;;
31126;SDS011;17775;57.948;12.514;2022-09-30T13:10:45;2.65;;;0.82;;
31126;SDS011;17775;57.948;12.514;2022-09-30T13:15:40;1.77;;;0.88;;
31126;SDS011;17775;57.948;12.514;2022-09-30T13:20:49;2.05;;;0.85;;
31126;SDS011;17775;57.948;12.514;2022-09-30T13:25:51;1.00;;;0.70;;
31126;SDS011;17775;57.948;12.514;2022-09-30T13:30:47;2.28;;;1.00;;
31126;SDS011;17775;57.948;12.514;2022-09-30T13:33:27;3.03;;;1.00;;
31126;SDS011;17775;57.948;12.514;2022-09-30T13:35:56;1.98;;;1.00;;
31126;SDS011;17775;57.948;12.514;2022-09-30T13:38:32;1.52;;;1.05;;
31126;SDS011;17775;57.948;12.514;2022-09-30T13:46:05;3.67;;;1.15;;
31126;SDS011;17775;57.948;12.514;2022-09-30T13:48:33;1.33;;;1.00;;
31126;SDS011;17775;57.948;12.514;2022-09-30T13:51:02;1.67;;;1.02;;
31126;SDS011;17775;57.948;12.514;2022-09-30T13:55:58;1.92;;;1.27;;
31126;SDS011;17775;57.948;12.514;2022-09-30T14:01:01;1.83;;;1.40;;
31126;SDS011;17775;57.948;12.514;2022-09-30T14:06:15;2.58;;;1.50;;
31126;SDS011;17775;57.948;12.514;2022-09-30T14:21:43;2.20;;;1.30;;
31126;SDS011;17775;57.948;12.514;2022-09-30T14:24:21;2.72;;;1.27;;
31126;SDS011;17775;57.948;12.514;2022-09-30T14:31:51;3.63;;;1.38;;
31126;SDS011;17775;57.948;12.514;2022-09-30T14:34:17;3.03;;;1.77;;
31126;SDS011;17775;57.948;12.514;2022-09-30T14:36:45;2.30;;;1.30;;
31126;SDS011;17775;57.948;12.514;2022-09-30T14:39:15;2.72;;;1.27;;
31126;SDS011;17775;57.948;12.514;2022-09-30T14:41:49;2.22;;;1.30;;
31126;SDS011;17775;57.948;12.514;2022-09-30T14:46:43;2.58;;;1.40;;
31126;SDS011;17775;57.948;12.514;2022-09-30T14:49:13;4.55;;;1.48;;
31126;SDS011;17775;57.948;12.514;2022-09-30T14:51:42;1.92;;;1.40;;
31126;SDS011;17775;57.948;12.514;2022-09-30T14:54:14;1.75;;;1.35;;
31126;SDS011;17775;57.948;12.514;2022-09-30T14:56:42;3.83;;;1.40;;
31126;SDS011;17775;57.948;12.514;2022-09-30T14:59:19;1.73;;;1.40;;
31126;SDS011;17775;57.948;12.514;2022-09-30T15:01:46;2.17;;;1.40;;
31126;SDS011;17775;57.948;12.514;2022-09-30T15:04:14;2.33;;;1.40;;
31126;SDS011;17775;57.948;12.514;2022-09-30T15:06:42;3.63;;;1.30;;
31126;SDS011;17775;57.948;12.514;2022-09-30T15:09:25;3.13;;;1.75;;
31126;SDS011;17775;57.948;12.514;2022-09-30T15:11:53;3.55;;;1.42;;
31126;SDS011;17775;57.948;12.514;2022-09-30T15:14:20;7.50;;;1.63;;
31126;SDS011;17775;57.948;12.514;2022-09-30T15:16:48;2.72;;;1.80;;
31126;SDS011;17775;57.948;12.514;2022-09-30T15:21:48;2.83;;;2.08;;
31126;SDS011;17775;57.948;12.514;2022-09-30T15:24:16;5.60;;;1.75;;
31126;SDS011;17775;57.948;12.514;2022-09-30T15:26:43;3.22;;;1.95;;
31126;SDS011;17775;57.948;12.514;2022-09-30T15:29:15;2.67;;;1.90;;
31126;SDS011;17775;57.948;12.514;2022-09-30T15:31:46;7.57;;;2.10;;
31126;SDS011;17775;57.948;12.514;2022-09-30T15:34:15;2.13;;;1.52;;
31126;SDS011;17775;57.948;12.514;2022-09-30T15:36:59;2.15;;;1.50;;
31126;SDS011;17775;57.948;12.514;2022-09-30T15:39:33;3.97;;;1.60;;
31126;SDS011;17775;57.948;12.514;2022-09-30T15:44:54;4.78;;;1.80;;
31126;SDS011;17775;57.948;12.514;2022-09-30T15:47:21;3.13;;;1.88;;
31126;SDS011;17775;57.948;12.514;2022-09-30T15:49:49;4.03;;;1.48;;
31126;SDS011;17775;57.948;12.514;2022-09-30T15:52:22;2.50;;;1.60;;
31126;SDS011;17775;57.948;12.514;2022-09-30T15:54:53;2.72;;;1.58;;
31126;SDS011;17775;57.948;12.514;2022-09-30T16:00:29;1.67;;;1.40;;
31126;SDS011;17775;57.948;12.514;2022-09-30T16:05:44;1.02;;;0.90;;
31126;SDS011;17775;57.948;12.514;2022-09-30T16:08:13;2.63;;;1.15;;
31126;SDS011;17775;57.948;12.514;2022-09-30T16:10:52;1.85;;;1.10;;
31126;SDS011;17775;57.948;12.514;2022-09-30T16:13:20;2.47;;;1.50;;
31126;SDS011;17775;57.948;12.514;2022-09-30T16:15:47;3.17;;;1.30;;
31126;SDS011;17775;57.948;12.514;2022-09-30T16:18:16;2.78;;;0.90;;
31126;SDS011;17775;57.948;12.514;2022-09-30T16:20:54;1.42;;;1.15;;
31126;SDS011;17775;57.948;12.514;2022-09-30T16:23:26;2.58;;;1.13;;
31126;SDS011;17775;57.948;12.514;2022-09-30T16:26:10;2.22;;;1.38;;
31126;SDS011;17775;57.948;12.514;2022-09-30T16:28:37;2.03;;;1.20;;
31126;SDS011;17775;57.948;12.514;2022-09-30T16:31:04;2.30;;;1.20;;
31126;SDS011;17775;57.948;12.514;2022-09-30T16:33:31;3.53;;;1.30;;
31126;SDS011;17775;57.948;12.514;2022-09-30T16:35:59;3.50;;;1.58;;
31126;SDS011;17775;57.948;12.514;2022-09-30T16:38:28;2.17;;;1.60;;
31126;SDS011;17775;57.948;12.514;2022-09-30T16:40:54;1.77;;;1.13;;
31126;SDS011;17775;57.948;12.514;2022-09-30T16:43:24;3.53;;;1.70;;
31126;SDS011;17775;57.948;12.514;2022-09-30T16:45:52;3.53;;;1.92;;
31126;SDS011;17775;57.948;12.514;2022-09-30T16:48:18;5.03;;;2.20;;
31126;SDS011;17775;57.948;12.514;2022-09-30T16:53:13;3.95;;;1.80;;
31126;SDS011;17775;57.948;12.514;2022-09-30T16:55:39;2.50;;;1.73;;
31126;SDS011;17775;57.948;12.514;2022-09-30T16:58:05;2.17;;;1.50;;
31126;SDS011;17775;57.948;12.514;2022-09-30T17:00:35;3.90;;;1.40;;
31126;SDS011;17775;57.948;12.514;2022-09-30T17:03:01;2.50;;;1.45;;
31126;SDS011;17775;57.948;12.514;2022-09-30T17:05:28;1.58;;;1.10;;
31126;SDS011;17775;57.948;12.514;2022-09-30T17:07:55;2.33;;;1.42;;
31126;SDS011;17775;57.948;12.514;2022-09-30T17:12:53;3.47;;;1.55;;
31126;SDS011;17775;57.948;12.514;2022-09-30T17:15:20;4.47;;;2.05;;
31126;SDS011;17775;57.948;12.514;2022-09-30T17:17:47;3.90;;;2.00;;
31126;SDS011;17775;57.948;12.514;2022-09-30T17:20:13;2.78;;;1.90;;
31126;SDS011;17775;57.948;12.514;2022-09-30T17:22:40;2.78;;;1.48;;
31126;SDS011;17775;57.948;12.514;2022-09-30T17:25:06;2.67;;;1.95;;
31126;SDS011;17775;57.948;12.514;2022-09-30T17:27:33;3.13;;;1.40;;
31126;SDS011;17775;57.948;12.514;2022-09-30T17:30:03;2.67;;;1.60;;
31126;SDS011;17775;57.948;12.514;2022-09-30T17:32:30;2.58;;;1.50;;
31126;SDS011;17775;57.948;12.514;2022-09-30T17:34:56;4.35;;;1.30;;
31126;SDS011;17775;57.948;12.514;2022-09-30T17:37:23;3.50;;;1.60;;
31126;SDS011;17775;57.948;12.514;2022-09-30T17:39:49;1.92;;;1.52;;
31126;SDS011;17775;57.948;12.514;2022-09-30T17:42:15;2.63;;;1.83;;
31126;SDS011;17775;57.948;12.514;2022-09-30T17:45:00;4.75;;;1.70;;
31126;SDS011;17775;57.948;12.514;2022-09-30T17:47:27;2.63;;;1.55;;
31126;SDS011;17775;57.948;12.514;2022-09-30T17:49:53;3.95;;;1.67;;
31126;SDS011;17775;57.948;12.514;2022-09-30T17:52:20;4.90;;;1.60;;
31126;SDS011;17775;57.948;12.514;2022-09-30T17:54:52;2.50;;;1.60;;
31126;SDS011;17775;57.948;12.514;2022-09-30T17:57:19;2.53;;;1.88;;
31126;SDS011;17775;57.948;12.514;2022-09-30T17:59:46;3.55;;;1.70;;
31126;SDS011;17775;57.948;12.514;2022-09-30T18:02:12;1.90;;;1.50;;
31126;SDS011;17775;57.948;12.514;2022-09-30T18:04:40;3.58;;;1.70;;
31126;SDS011;17775;57.948;12.514;2022-09-30T18:07:07;10.52;;;2.00;;
31126;SDS011;17775;57.948;12.514;2022-09-30T18:09:35;3.13;;;1.90;;
31126;SDS011;17775;57.948;12.514;2022-09-30T18:12:03;2.47;;;1.30;;
31126;SDS011;17775;57.948;12.514;2022-09-30T18:14:30;5.50;;;1.67;;